Insider trading report: Insider Sale on September 6, 2019

This page lists insider stock sales reported to U.S. Securities and Exchange Commission (SEC) on September 6, 2019. To query the history of insider trading activities (stock purchases, sales, and option exercises) for a particular company, use the Issuer column. For insider stock purchases reported on this day see insider trading report: insider purchases reported on September 6, 2019.


 1   2 

Insider stock sales reported on September 6, 2019
Symbol Issuer   Shares     Price     Value($)  
ABTX Allegiance Bancshares, Inc. 1st time Williams Roland L. (Director) 8,000 32.67 261,360 2019-09-06
   Williams Roland L. (Director) 8,000 32.90 263,176 2019-09-05
AGM Federal Agricultural Mortgage Corp 1st time Engebretsen James R 500 79.97 39,986 2019-09-04
AKTS Akoustis Technologies, Inc. 1st time Shealy Jeffrey B. (Chief Executive Officer) 460 7.44 3,422 2019-09-05
AL Air Lease Corp 1st time Levy Grant A (EVP) 53,000 42.31 2,242,377 2019-09-05
ALKS Alkermes Plc. 1st time Pops Richard F (Director and CEO, Alkermes plc) 100,000 20.18 2,017,800 2019-09-05
AM Antero Midstream Corp 1st time Warburg Pincus & Co. (Director) 30,127,421 6.81 205,167,737 2019-09-05
   Yorktown Energy Partners V Lp (Director) 1,392,602 6.81 9,483,619 2019-09-05
   Kagan Peter (Director) 17,144,152 6.81 116,751,675 2019-09-05
   Yorktown V Co Llc (Director) 1,392,602 6.81 9,483,619 2019-09-05
   Yorktown Energy Partners Vi Lp (Director) 1,463,246 6.81 9,964,705 2019-09-05
   Yorktown Vi Associates Llc (Director) 1,463,246 6.81 9,964,705 2019-09-05
AMBA Ambarella Inc 1st time Paisley Christopher B (Director) 500 60.00 30,000 2019-09-05
   Paisley Christopher B (Director) 1,500 58.41 87,616 2019-09-04
   Day Christopher (VP, Marketing) 405 58.72 23,779 2019-09-04
   Wang Feng-ming (CEO) 60,000 59.19 3,551,100 2019-09-04
AMD Advanced Micro Devices Inc 1st time Grasby Paul Darren (SVP & CSO, President EMEA) 6,000 31.30 187,800 2019-09-04
AMSWA American Software Inc 1st time Edenfield J Michael 1,700 15.00 25,500 2019-09-05
AMT American Tower Corp /ma/ 1st time Reeve Pamela D A (Director) 4,167 240.80 1,003,413 2019-09-04
APPN Appian Corp 1st time Boccassam Prashanth 3,000 58.03 174,090 2019-09-04
AROC Archrock, Inc. 1st time Henderson Donna A (VP, Chief Accounting Officer) 15,308 10.14 155,223 2019-09-05
AYX Alteryx, Inc. 1st time Jones Robert Scott (Pres. & Chief Revenue Officer) 1,599 146.53 234,301 2019-09-05
BAX Baxter International Inc 1st time Kunzler Jacqueline (SVP, Chief Quality Officer) 5,934 88.12 522,904 2019-09-05
BEAT Biotelemetry, Inc. 1st time Ferola Peter (SVP & General Counsel) 44,276 39.03 1,728,092 2019-09-04
BLFS Biolife Solutions Inc 1st time De Greef Roderick (Chief Financial Officer) 10,000 19.88 198,800 2019-09-06
   De Greef Roderick (Chief Financial Officer) 10,000 19.46 194,600 2019-09-04
   De Greef Roderick (Chief Financial Officer) 10,000 19.99 199,899 2019-09-05
CDXS Codexis, Inc. 1st time Kelley Bernard J 14,684 13.87 203,681 2019-09-06
CERN Cerner Corp 1st time Naughton Marc G (Exec. VP & CFO) 24,110 67.58 1,629,353 2019-09-06
   Trigg Donald (Exec. VP, Strategic Growth) 29,423 67.72 1,992,525 2019-09-06
CHTR Charter Communications, Inc. /mo/ 1st time Conn Lance (Director) 1,000 .00 0 2019-09-05
CLVS Clovis Oncology, Inc. 1st time Ivers-read Gillian C (See Remarks) 630 5.21 3,282 2019-09-04
   Muehl Daniel W (See Remarks) 495 5.21 2,578 2019-09-04
   Rolfe Lindsey (See Remarks) 716 5.21 3,730 2019-09-04
   Gross Paul Edward (See Remarks) 495 5.21 2,578 2019-09-04
CLX Clorox Co /de/ 1st time Costello Michael R. (SVP - General Manager) 6,997 162.56 1,137,397 2019-09-04
CMCSA Comcast Corp 1st time Bacon Kenneth J 4,000 45.03 180,136 2019-09-04
CME Cme Group Inc. 1st time Pietrowicz John W. (Sr MD Chief Financial Officer) 2,500 217.62 544,050 2019-09-04
CMG Chipotle Mexican Grill Inc 1st time Garner Curtis E (Chief Technology Officer) 1,253 835.92 1,047,409 2019-09-04
COSM Cosmos Holdings Inc. 1st time Siokas Grigorios (Chief Executive Officer) 34,666 1.20 41,495 2019-09-01
COUP Coupa Software Inc 1st time Siboni Roger S 13,822 147.45 2,038,040 2019-09-05
   Stansbury Henry Tayloe 10,000 148.12 1,481,170 2019-09-05
   Tiscornia Anthony D (Chief Accounting Officer) 260 146.42 38,069 2019-09-05
CRM Salesforce.com, Inc. 1st time Benioff Marc (Chairman of the Board & co-CEO) 5,000 151.94 759,715 2019-09-06
CRVL Corvel Corp 1st time Clemons V Gordon (Chairman of the Board) 1,000 85.63 85,627 2019-09-04
   Clemons V Gordon (Chairman of the Board) 1,000 85.63 85,627 2019-09-04
   Yoss Jennifer (Vice President of Accounting) 125 85.64 10,704 2019-09-04
CSOD Cornerstone Ondemand Inc 1st time Miller Adam L (Chief Executive Officer) 10,500 54.20 569,152 2019-09-05
   Miller Adam L (Chief Executive Officer) 10,500 52.58 552,079 2019-09-04
CTSH Cognizant Technology Solutions Corp 1st time Frank Malcolm (President, Digital Business) 678 62.22 42,185 2019-09-04
   Shaheen Allen (EVP, NA Digital Hubs) 1,091 62.15 67,800 2019-09-04
   Lennox James Patrick (EVP - Chief People Officer) 889 62.23 55,326 2019-09-04
   Friedrich Matthew W. (General Counsel) 3,104 62.23 193,171 2019-09-04
CVA Covanta Holding Corp 1st time Fisher Linda J. 12,000 17.14 205,656 2019-09-06
CYTK Cytokinetics Inc 1st time Malik Fady Ibraham (EVP Research & Development) 1,500 13.69 20,532 2019-09-05
DAN Dana Inc 1st time Wallace Mark E (EVP & Pres Comm Veh Drive Tech) 44,570 13.40 597,327 2019-09-05
   Wallace Mark E (EVP & Pres Comm Veh Drive Tech) 12,559 13.44 168,780 2019-09-05
DENN Denny's Corp 1st time Verostek Robert P. (Senior Vice President, Finance) 5,120 23.60 120,826 2019-09-04
EGAN Egain Corp 1st time Smit Eric (Chief Financial Officer) 4,000 8.00 32,000 2019-09-04
EIDX Eidos Therapeutics, Inc. 1st time Turtle Cameron (Chief Business Officer) 5,000 41.80 209,000 2019-09-04
ENFC Entegra Financial Corp. 1st time Scaggs Ryan (EVP & Chief Operating Officer) 500 30.05 15,025 2019-09-05
ENSG Ensign Group, Inc 1st time Port Barry (Chief Executive Officer) 199 48.78 9,707 2019-09-04
   Christensen Christopher R. (Executive Chairman) 199 48.78 9,707 2019-09-04
   Snapper Suzanne D. (CFO and EVP) 278 48.78 13,560 2019-09-04
   Wittekind Beverly B. (VP and General Counsel) 85 48.78 4,146 2019-09-04
   Keetch Chad (CIO, EVP and Secretary) 278 48.78 13,560 2019-09-04
   Burton Spencer (President and COO) 118 48.78 5,756 2019-09-04
ESTC Elastic N.v. 1st time Volpi Michelangelo (Director) 287,688 85.40 24,568,555 2019-09-04
EW Edwards Lifesciences Corp 1st time Bobo Donald E Jr (CVP,Strategy/Corp Development) 5,369 226.26 1,214,789 2019-09-06
EXPD Expeditors International Of Washington Inc 1st time Alger Eugene K (President Global Services) 36,000 71.05 2,557,944 2019-09-04
   Alger Eugene K (President Global Services) 14,000 71.41 999,740 2019-09-05
EXPI Exp World Holdings, Inc. 1st time Miller Richard Stanwood 17,500 8.43 147,525 2019-09-05
FELE Franklin Electric Co Inc 1st time Walsh Jay J (President, Franklin Fueling) 1,016 46.11 46,849 2019-09-05
FICO Fair Isaac Corp 1st time Lansing William J (President and CEO) 16,000 361.48 5,783,712 2019-09-05
   Scadina Mark R (EVP, Gen. Counsel & Sec.) 5,981 361.68 2,163,178 2019-09-05
   Scadina Mark R (EVP, Gen. Counsel & Sec.) 6,019 355.52 2,139,874 2019-09-04
FN Fabrinet 1st time Ng Toh-seng (Chief Financial Officer) 5,000 53.70 268,520 2019-09-05
   Ng Toh-seng (Chief Financial Officer) 6,278 53.76 337,473 2019-09-06
   Grady Seamus (Chief Executive Officer) 5,206 53.74 279,760 2019-09-06
FORM Formfactor Inc 1st time Slessor Mike (CEO) 14,835 18.03 267,489 2019-09-05
GDDY Godaddy Inc. 1st time Winborne Raymond E Jr (Chief Financial Officer) 449 62.86 28,223 2019-09-04
   Carroll James M. (Chief PFM & GLOB Officer) 339 62.86 21,308 2019-09-04
   Low Ah Kee Andrew (Chief Operating Officer) 1,022 62.86 64,240 2019-09-04
GLDD Great Lakes Dredge & Dock Corp 1st time Simonelli David E (President - Dredging Division) 1,164 10.77 12,531 2019-09-04
GLUU Glu Mobile Inc 1st time Leichtner Scott (VP and General Counsel) 54,357 4.56 247,976 2019-09-05
GURE Gulf Resources, Inc. 1st time Li Min (CFO) 166,230 .72 119,685 2019-09-05
   Liu Xiaobin (CEO and Director) 166,230 .72 119,685 2019-09-05
   Jiang Shitong 5,195 .72 3,740 2019-09-05
   Miao Naihui (COO and Secretary) 166,230 .72 119,685 2019-09-05
HBCP Home Bancorp, Inc. 1st time Zanco Joseph B (EVP & Chief Financial Officer) 6,000 37.68 226,080 2019-09-05
HES Hess Corp 1st time Hess John B (Chief Executive Officer) 720,566 65.41 47,132,222 2019-09-05
   Hess John B (Chief Executive Officer) 203,798 65.11 13,269,287 2019-09-04
HTH Hilltop Holdings Inc. 1st time Parmenter Darren E (Chief Administrative Officer) 4,000 24.00 96,000 2019-09-05
HXL Hexcel Corp /de/ 1st time Stanage Nick L (Chairman, CEO and President) 41,406 85.12 3,524,478 2019-09-04
   Stanage Nick L (Chairman, CEO and President) 15,662 85.99 1,346,775 2019-09-05
ICE Intercontinental Exchange, Inc. 1st time Hill Scott A (Chief Financial Officer) 38,305 94.03 3,601,819 2019-09-04
   Martin Lynn C (President & COO, ICE Data Serv) 2,500 94.75 236,875 2019-09-04
ICHR Ichor Holdings, Ltd. 1st time Barros Philip Ryan Sr. (Chief Technology Officer) 15,338 23.18 355,534 2019-09-05
IRBT Irobot Corp 1st time Ali Mohamad (Director) 780 61.11 47,663 2019-09-04
IRM Iron Mountain Inc 1st time Keddy Patrick J (EVP & GM, N. America,W. Europe) 6,000 33.00 198,000 2019-09-05
ITP It Tech Packaging, Inc. 1st time Liu Zhenyong (Chief Executive Officer) 324,326 1.02 330,812 2019-05-23
   Hao Jing (Chief Financial Officer) 4,000 1.02 4,080 2019-05-23
JCI Johnson Controls International Plc 1st time Williams Jeffrey M (VP & Pres G Prod Bldg Tech Sol) 52,655 42.91 2,259,531 2019-09-05
   Rushing Rodney M (Pres. Bldg Solutions, North Am) 13,908 42.88 596,430 2019-09-05
JCTCF Jewett Cameron Trading Co Ltd 1st time Nasser Michael Charles (Corporate Secretary) 100 8.10 810 2019-09-04
KALU Kaiser Aluminum Corp 1st time Harvey Keith (President & COO) 500 90.00 45,000 2019-09-05
KOP Koppers Holdings Inc. 1st time Feng Xudong (Director) 2,442 26.92 65,738 2019-09-05
LCI Lannett Co Inc 1st time Paonessa Albert Iii (Director) 11,582 10.30 119,294 2019-09-06
LH Laboratory Corp Of America Holdings 1st time Uthgenannt Lisa J (Chief Human Resources Officer) 2,466 168.59 415,742 2019-09-04
LNTH Lantheus Holdings, Inc. 1st time Duffy Michael P (SVP and General Counsel) 5,604 20.60 115,464 2019-09-04
LUNA Luna Innovations Inc 1st time Carilion Clinic 71,701 6.32 453,150 2019-09-04
   Carilion Clinic 51,047 6.70 342,014 2019-09-06
   Carilion Clinic 48,953 6.71 328,474 2019-09-05
MDC Mdc Holdings Inc 1st time Berman Michael A (Director) 10,000 38.97 389,700 2019-09-05
MRVL Marvell Technology Group Ltd 1st time Micallef Andrew (COO) 40,000 24.00 960,000 2019-09-04
   Murphy Matthew J (CEO and President) 15,000 24.83 372,450 2019-09-05
MSBI Midland States Bancorp, Inc. 1st time Holschbach Leon J 1,992 26.00 51,792 2019-09-05
MSFT Microsoft Corp 1st time Capossela Christopher C (EVP, Chief Marketing Officer) 6,000 140.10 840,600 2019-09-06
   Capossela Christopher C (EVP, Chief Marketing Officer) 12,500 139.84 1,748,012 2019-09-05
MTH Meritage Homes Corp 1st time Haddock Gerald W 7,500 66.29 497,160 2019-09-04
MXIM Maxim Integrated Products Inc 1st time Doluca Tunc (PRESIDENT, CEO & DIRECTOR) 5,000 57.00 285,000 2019-09-05
   Doluca Tunc (PRESIDENT, CEO & DIRECTOR) 2,500 54.72 136,792 2019-09-04
MXL Maxlinear Inc 1st time Kwong Connie H. (Corporate Controller & PAO) 2,500 20.75 51,872 2019-09-05
NRC National Research Corp 1st time Karas Kevin R (SVP Finance, CFO, Treas & Secy) 7,114 63.89 454,492 2019-09-05
NTRA Natera, Inc. 1st time Brophy Michael Burkes (Chief Financial Officer) 78 32.49 2,534 2019-09-04
NXPI Nxp Semiconductors N.v. 1st time Shull Keith M (EVP Human Resources) 4,569 105.53 482,171 2019-09-05
OSIS Osi Systems Inc 1st time Mehra Ajay (Executive Vice President) 10,701 106.52 1,139,913 2019-09-05
PB Prosperity Bancshares Inc 1st time Dowdell Robert J. (Executive Vice President) 7,600 65.45 497,435 2019-09-05
PBYI Puma Biotechnology, Inc. 1st time Auerbach Alan H (PRESIDENT AND CEO) 524 10.14 5,313 2019-09-04
PFPT Proofpoint Inc 1st time Knight David (EVP/GM, Security Products) 2,500 127.50 318,757 2019-09-05

 1   2 




Real-time Insider Trading

Insider Officer Cluster Trading

Top Officer Buys of the Week

Top Officer Buys of the Month